Camp Mabry, Texas
Current Conditions -  °F | °C
As of 1:51 PM on Thursday 30 Oct 2014 (Local Time) from KATT Reporting Station
Clear Clear  
Wind Chill: 77°   Ceiling: Unl
Heat Index: 79°   Visibility: 10mi
Dew Point: 59°   Wind: 3mph
Humidity: 54%   Direction: NA
Pressure: 30.11"   Gusts: NA
Location:  30.3482°N, 97.7679°W
Report Text: KATT 301851Z AUTO VRB03KT 10SM CLR 25/15 A3011 RMK AO2 SLP189 T02500150
Loading
Personal Weather Stations






























Interactive Weather Map
Tropical Storm Tracking
New forecast layout! Learn more

10-Day Weather Forecast

Advertisements
Track Severe Weather on mobile